Time;durP1;ratioP1;P1;durP2;ratioP2;P2;SDS_P1;SDS_P2;PMS_P1;PMS_P2;Temp;Humidity;BMP_temperature;BMP_pressure;BME280_temperature;BME280_humidity;BME280_pressure;Samples;Min_cycle;Max_cycle;Signal;HPM_P1;HPM_P2
2022/06/02 00:01:16;;;;;;;5.63;3.47;;;;;;;;;;5062768;28;20460;-84
2022/06/02 00:03:47;;;;;;;5.13;3.00;;;;;;;;;;5061086;28;20749;-83
2022/06/02 00:06:21;;;;;;;3.80;3.40;;;;;;;;;;5061880;28;20395;-83
2022/06/02 00:08:49;;;;;;;3.37;3.03;;;;;;;;;;5062300;28;20405;-84
2022/06/02 00:11:25;;;;;;;4.70;3.50;;;;;;;;;;5061512;28;20447;-83
2022/06/02 00:13:50;;;;;;;5.47;3.27;;;;;;;;;;5061196;28;20824;-85
2022/06/02 00:16:25;;;;;;;3.80;3.50;;;;;;;;;;5060528;28;20421;-83
2022/06/02 00:18:57;;;;;;;3.70;3.27;;;;;;;;;;5062109;28;20409;-84
2022/06/02 00:21:29;;;;;;;5.90;3.53;;;;;;;;;;5061209;28;20468;-83
2022/06/02 00:23:55;;;;;;;5.43;3.10;;;;;;;;;;5059980;28;20400;-83
2022/06/02 00:26:33;;;;;;;4.20;3.77;;;;;;;;;;5060025;28;20496;-83
2022/06/02 00:29:02;;;;;;;5.33;2.73;;;;;;;;;;5060677;28;20827;-83
2022/06/02 00:31:37;;;;;;;4.10;3.60;;;;;;;;;;5061068;28;20858;-83
2022/06/02 00:34:07;;;;;;;5.83;4.33;;;;;;;;;;5061572;28;20758;-83
2022/06/02 00:36:36;;;;;;;5.83;3.80;;;;;;;;;;5061331;28;20406;-83
2022/06/02 00:39:03;;;;;;;4.10;3.40;;;;;;;;;;5060403;28;20476;-83
2022/06/02 00:41:42;;;;;;;8.00;3.77;;;;;;;;;;5060258;28;20973;-83
2022/06/02 00:44:15;;;;;;;4.70;3.80;;;;;;;;;;5061675;28;20389;-82
2022/06/02 00:46:53;;;;;;;3.83;3.20;;;;;;;;;;5061362;28;20401;-83
2022/06/02 00:49:31;;;;;;;4.87;3.80;;;;;;;;;;5066601;28;20397;-84
2022/06/02 00:52:03;;;;;;;4.90;3.87;;;;;;;;;;5060779;28;20444;-84
2022/06/02 00:57:44;;;;;;;4.87;3.57;;;;;;;;;;5060789;28;20744;-84
2022/06/02 01:00:16;;;;;;;4.67;3.53;;;;;;;;;;5059223;28;20564;-83
2022/06/02 01:02:46;;;;;;;4.43;4.03;;;;;;;;;;5061204;28;20405;-84
2022/06/02 01:05:13;;;;;;;6.73;3.40;;;;;;;;;;5060907;28;20417;-83
2022/06/02 01:07:39;;;;;;;5.00;3.80;;;;;;;;;;5062726;28;20452;-80
2022/06/02 01:10:08;;;;;;;5.10;3.73;;;;;;;;;;5074387;28;20453;-81
2022/06/02 01:12:52;;;;;;;5.40;4.20;;;;;;;;;;5064959;28;20773;-86
2022/06/02 01:15:27;;;;;;;5.00;4.50;;;;;;;;;;5062395;28;20386;-83
2022/06/02 01:17:56;;;;;;;5.13;4.30;;;;;;;;;;5061271;28;20400;-84
2022/06/02 01:20:30;;;;;;;3.97;3.57;;;;;;;;;;5060984;28;20426;-83
2022/06/02 01:23:19;;;;;;;4.20;3.80;;;;;;;;;;5061418;28;21064;-81
2022/06/02 01:25:54;;;;;;;4.23;3.83;;;;;;;;;;5050438;28;20413;-84
2022/06/02 01:28:22;;;;;;;4.50;3.20;;;;;;;;;;5061129;28;20783;-85
2022/06/02 01:30:54;;;;;;;8.03;4.10;;;;;;;;;;5068967;28;20779;-84
2022/06/02 01:33:33;;;;;;;4.93;3.97;;;;;;;;;;5044144;28;20413;-83
2022/06/02 01:36:05;;;;;;;4.37;3.90;;;;;;;;;;5045124;28;20405;-83
2022/06/02 01:38:36;;;;;;;6.40;4.50;;;;;;;;;;5044448;28;20410;-83
2022/06/02 01:41:10;;;;;;;4.97;4.07;;;;;;;;;;5062241;28;20453;-85
2022/06/02 01:43:43;;;;;;;6.80;4.47;;;;;;;;;;5062466;28;20397;-84
2022/06/02 01:46:09;;;;;;;6.97;4.70;;;;;;;;;;5043980;28;20413;-83
2022/06/02 01:48:41;;;;;;;5.30;3.80;;;;;;;;;;5061868;28;20511;-83
2022/06/02 01:51:10;;;;;;;5.10;3.13;;;;;;;;;;5062146;28;20436;-83
2022/06/02 01:53:49;;;;;;;3.73;3.43;;;;;;;;;;5062008;28;20412;-83
2022/06/02 01:56:21;;;;;;;3.10;2.80;;;;;;;;;;5061458;28;20386;-83
2022/06/02 01:59:01;;;;;;;5.43;3.20;;;;;;;;;;5060433;28;20433;-84
2022/06/02 02:01:42;;;;;;;5.07;3.70;;;;;;;;;;5060481;28;20461;-85
2022/06/02 02:04:10;;;;;;;5.53;4.07;;;;;;;;;;5049923;28;20410;-82
2022/06/02 02:06:42;;;;;;;14.60;4.33;;;;;;;;;;5055622;28;20425;-81
2022/06/02 02:09:17;;;;;;;4.00;3.60;;;;;;;;;;5055472;28;20406;-82
2022/06/02 02:11:43;;;;;;;4.73;3.50;;;;;;;;;;5072731;28;20540;-81
2022/06/02 02:14:24;;;;;;;4.27;3.37;;;;;;;;;;5053706;28;20429;-84
2022/06/02 02:17:00;;;;;;;7.70;3.10;;;;;;;;;;5053968;28;20420;-84
2022/06/02 02:19:44;;;;;;;3.30;3.00;;;;;;;;;;5046053;28;20428;-84
2022/06/02 02:22:21;;;;;;;5.30;2.83;;;;;;;;;;5059672;28;20502;-82
2022/06/02 02:25:00;;;;;;;3.17;2.67;;;;;;;;;;5059789;28;20757;-83
2022/06/02 02:27:26;;;;;;;4.57;3.10;;;;;;;;;;5059545;28;20437;-83
2022/06/02 02:30:04;;;;;;;5.50;3.80;;;;;;;;;;5059126;28;20398;-82
2022/06/02 02:32:42;;;;;;;4.47;3.37;;;;;;;;;;5059569;28;20405;-84
2022/06/02 02:35:13;;;;;;;2.67;2.23;;;;;;;;;;5045918;28;20916;-84
2022/06/02 02:37:55;;;;;;;3.43;2.70;;;;;;;;;;5042715;28;20465;-84
2022/06/02 02:40:24;;;;;;;8.03;3.53;;;;;;;;;;5059471;28;20797;-84
2022/06/02 02:43:16;;;;;;;5.43;3.27;;;;;;;;;;5059605;28;20508;-84
2022/06/02 02:46:01;;;;;;;3.77;3.13;;;;;;;;;;5036454;28;20492;-83
2022/06/02 02:48:33;;;;;;;3.80;3.13;;;;;;;;;;5057745;28;20402;-81
2022/06/02 02:51:18;;;;;;;3.90;2.90;;;;;;;;;;5056099;28;20421;-84
2022/06/02 02:54:17;;;;;;;4.00;3.50;;;;;;;;;;5056367;28;20540;-84
2022/06/02 02:56:58;;;;;;;10.60;5.83;;;;;;;;;;5007284;28;20485;-83
2022/06/02 02:59:43;;;;;;;4.30;3.37;;;;;;;;;;5039883;28;20416;-82
2022/06/02 03:02:21;;;;;;;6.07;3.53;;;;;;;;;;5058024;28;20445;-83
2022/06/02 03:05:05;;;;;;;6.00;3.30;;;;;;;;;;5040874;28;20972;-84
2022/06/02 03:07:31;;;;;;;4.00;3.53;;;;;;;;;;5057979;28;20477;-83
2022/06/02 03:10:10;;;;;;;3.50;3.20;;;;;;;;;;5074455;28;20436;-83
2022/06/02 03:12:36;;;;;;;5.07;3.90;;;;;;;;;;5082570;28;20403;-83
2022/06/02 03:15:02;;;;;;;4.00;3.40;;;;;;;;;;5064316;28;20491;-84
2022/06/02 03:17:43;;;;;;;4.57;3.40;;;;;;;;;;5082868;28;20411;-83
2022/06/02 03:20:21;;;;;;;4.30;3.30;;;;;;;;;;5082667;28;20431;-84
2022/06/02 03:22:48;;;;;;;5.60;3.70;;;;;;;;;;5082445;28;20773;-83
2022/06/02 03:25:14;;;;;;;5.30;3.77;;;;;;;;;;5064259;28;20401;-83
2022/06/02 03:28:07;;;;;;;5.27;3.80;;;;;;;;;;5063473;28;20450;-84
2022/06/02 03:30:43;;;;;;;4.30;3.30;;;;;;;;;;5051354;28;20439;-84
2022/06/02 03:33:15;;;;;;;4.63;4.07;;;;;;;;;;5064294;28;20396;-85
2022/06/02 03:35:41;;;;;;;4.83;4.10;;;;;;;;;;5082655;28;20401;-83
2022/06/02 03:38:10;;;;;;;4.40;4.00;;;;;;;;;;5082480;28;20776;-84
2022/06/02 03:40:48;;;;;;;5.20;4.30;;;;;;;;;;5081920;28;20863;-84
2022/06/02 03:43:29;;;;;;;4.87;3.93;;;;;;;;;;5064331;28;20409;-83
2022/06/02 03:46:14;;;;;;;8.17;5.30;;;;;;;;;;5077125;28;20429;-81
2022/06/02 03:48:43;;;;;;;4.90;4.10;;;;;;;;;;5061793;28;20409;-85
2022/06/02 03:51:09;;;;;;;4.10;3.70;;;;;;;;;;5062409;28;20432;-84
2022/06/02 03:54:10;;;;;;;5.47;4.40;;;;;;;;;;5045040;28;20401;-82
2022/06/02 03:56:36;;;;;;;4.30;3.83;;;;;;;;;;4980063;28;20453;-83
2022/06/02 03:59:02;;;;;;;4.27;3.87;;;;;;;;;;5048130;28;20492;-84
2022/06/02 04:01:36;;;;;;;4.60;3.60;;;;;;;;;;5046170;28;20481;-83
2022/06/02 04:04:15;;;;;;;3.90;3.47;;;;;;;;;;5045952;28;20490;-83
2022/06/02 04:06:48;;;;;;;4.37;3.47;;;;;;;;;;5063443;28;20390;-83
2022/06/02 04:09:27;;;;;;;4.40;3.47;;;;;;;;;;5045067;28;20432;-83
2022/06/02 04:14:57;;;;;;;5.00;3.13;;;;;;;;;;5062117;28;20381;-83
2022/06/02 04:17:44;;;;;;;5.27;3.10;;;;;;;;;;5061599;28;20402;-82
2022/06/02 04:20:34;;;;;;;4.73;3.30;;;;;;;;;;5041825;28;20436;-80
2022/06/02 04:23:06;;;;;;;3.67;3.20;;;;;;;;;;5052361;28;20432;-84
2022/06/02 04:26:11;;;;;;;3.50;2.70;;;;;;;;;;5061660;28;20452;-84
2022/06/02 04:29:00;;;;;;;4.30;3.03;;;;;;;;;;4980765;28;20508;-84
2022/06/02 04:31:26;;;;;;;3.63;3.27;;;;;;;;;;4973492;28;20439;-84
2022/06/02 04:33:57;;;;;;;4.07;3.67;;;;;;;;;;5032404;28;20401;-84
2022/06/02 04:36:32;;;;;;;7.40;3.10;;;;;;;;;;5064385;28;20466;-83
2022/06/02 04:39:07;;;;;;;4.97;3.27;;;;;;;;;;5056821;28;20405;-81
2022/06/02 04:41:39;;;;;;;3.47;2.90;;;;;;;;;;5063857;28;20904;-83
2022/06/02 04:44:24;;;;;;;5.63;2.93;;;;;;;;;;5061576;28;20402;-85
2022/06/02 04:47:07;;;;;;;4.17;3.67;;;;;;;;;;5061928;28;20463;-85
2022/06/02 04:49:50;;;;;;;3.43;3.03;;;;;;;;;;5043875;28;20401;-84
2022/06/02 04:52:35;;;;;;;3.30;2.77;;;;;;;;;;5061716;28;20530;-84
2022/06/02 04:55:01;;;;;;;2.90;2.60;;;;;;;;;;5043252;28;20409;-84
2022/06/02 04:57:46;;;;;;;3.50;3.20;;;;;;;;;;5061370;28;20455;-85
2022/06/02 05:00:22;;;;;;;4.10;2.90;;;;;;;;;;5061387;28;20430;-85
2022/06/02 05:02:48;;;;;;;5.47;2.73;;;;;;;;;;5043583;28;20428;-85
2022/06/02 05:05:27;;;;;;;5.47;3.33;;;;;;;;;;5043919;28;20461;-84
2022/06/02 05:07:53;;;;;;;3.60;2.90;;;;;;;;;;5061239;28;20390;-84
2022/06/02 05:10:19;;;;;;;4.70;2.93;;;;;;;;;;5061081;28;20450;-85
2022/06/02 05:12:46;;;;;;;4.43;3.23;;;;;;;;;;5043526;28;20419;-85
2022/06/02 05:15:12;;;;;;;3.07;2.70;;;;;;;;;;5042661;28;20999;-84
2022/06/02 05:17:38;;;;;;;7.90;3.13;;;;;;;;;;5061306;28;20879;-84
2022/06/02 05:20:14;;;;;;;5.17;2.90;;;;;;;;;;5061345;28;20554;-84
2022/06/02 05:22:57;;;;;;;4.60;2.90;;;;;;;;;;5073726;28;20493;-83
2022/06/02 05:25:26;;;;;;;3.10;2.80;;;;;;;;;;5080854;28;20412;-83
2022/06/02 05:28:10;;;;;;;4.20;3.10;;;;;;;;;;5074300;28;20470;-82
2022/06/02 05:30:51;;;;;;;3.47;2.80;;;;;;;;;;5071334;28;20417;-79
2022/06/02 05:33:17;;;;;;;4.13;3.07;;;;;;;;;;5090356;28;20419;-81
2022/06/02 05:36:02;;;;;;;4.43;3.93;;;;;;;;;;5092891;28;20404;-81
2022/06/02 05:38:36;;;;;;;3.53;2.87;;;;;;;;;;5094372;28;20400;-81
2022/06/02 05:41:02;;;;;;;3.50;3.07;;;;;;;;;;5074747;28;20480;-83
2022/06/02 05:43:28;;;;;;;7.83;4.93;;;;;;;;;;5079292;28;20412;-83
2022/06/02 05:46:15;;;;;;;3.67;3.37;;;;;;;;;;5090612;28;20394;-83
2022/06/02 05:48:41;;;;;;;4.27;3.87;;;;;;;;;;5089849;28;20428;-83
2022/06/02 05:51:19;;;;;;;5.13;4.40;;;;;;;;;;5065438;28;20982;-83
2022/06/02 05:53:49;;;;;;;5.00;3.90;;;;;;;;;;5081566;28;20447;-83
2022/06/02 05:56:15;;;;;;;5.20;4.70;;;;;;;;;;5081200;28;20413;-83
2022/06/02 05:58:53;;;;;;;4.87;3.80;;;;;;;;;;5063866;28;20451;-83
2022/06/02 06:01:29;;;;;;;6.77;4.93;;;;;;;;;;5061710;28;20487;-82
2022/06/02 06:03:56;;;;;;;6.80;5.10;;;;;;;;;;5073042;28;20828;-82
2022/06/02 06:06:26;;;;;;;4.60;4.17;;;;;;;;;;5079413;28;20412;-82
2022/06/02 06:09:02;;;;;;;6.17;4.60;;;;;;;;;;5076084;28;20424;-82
2022/06/02 06:11:34;;;;;;;4.70;4.30;;;;;;;;;;5079448;28;20447;-83
2022/06/02 06:14:19;;;;;;;7.10;4.80;;;;;;;;;;5079027;28;20555;-84
2022/06/02 06:16:48;;;;;;;6.97;4.90;;;;;;;;;;5059055;28;20951;-80
2022/06/02 06:19:32;;;;;;;5.87;5.20;;;;;;;;;;5076071;28;20516;-81
2022/06/02 06:21:58;;;;;;;6.03;5.43;;;;;;;;;;5056865;28;20487;-83
2022/06/02 06:24:27;;;;;;;5.90;4.70;;;;;;;;;;5079159;28;20405;-82
2022/06/02 06:26:57;;;;;;;5.73;4.00;;;;;;;;;;5079087;28;20397;-84
2022/06/02 06:29:32;;;;;;;4.90;4.40;;;;;;;;;;5078654;28;20813;-83
2022/06/02 06:32:19;;;;;;;6.67;4.67;;;;;;;;;;5060363;28;20448;-82
2022/06/02 06:34:48;;;;;;;5.00;4.47;;;;;;;;;;5079045;28;20419;-84
2022/06/02 06:37:14;;;;;;;6.00;5.17;;;;;;;;;;5080883;28;20428;-83
2022/06/02 06:39:44;;;;;;;7.10;4.30;;;;;;;;;;5062956;28;20416;-84
2022/06/02 06:42:17;;;;;;;5.83;5.23;;;;;;;;;;5081948;28;20463;-82
2022/06/02 06:44:46;;;;;;;5.67;4.57;;;;;;;;;;5062765;28;20936;-81
2022/06/02 06:47:25;;;;;;;9.47;5.00;;;;;;;;;;5083223;28;20404;-82
2022/06/02 06:49:58;;;;;;;5.27;4.77;;;;;;;;;;5064518;28;20472;-82
2022/06/02 06:52:43;;;;;;;5.77;4.93;;;;;;;;;;5064742;28;20427;-83
2022/06/02 06:55:28;;;;;;;4.97;4.40;;;;;;;;;;5074805;28;20793;-82
2022/06/02 06:58:03;;;;;;;5.03;4.53;;;;;;;;;;5062997;28;20405;-81
2022/06/02 07:00:35;;;;;;;6.93;5.20;;;;;;;;;;5086650;28;20412;-84
2022/06/02 07:03:03;;;;;;;9.53;4.77;;;;;;;;;;5083415;28;20884;-83
2022/06/02 07:05:42;;;;;;;5.33;4.60;;;;;;;;;;5083606;28;20404;-84
2022/06/02 07:08:11;;;;;;;4.63;4.23;;;;;;;;;;5084731;28;20458;-85
2022/06/02 07:10:56;;;;;;;6.17;4.57;;;;;;;;;;5063889;28;20451;-83
2022/06/02 07:13:34;;;;;;;5.90;5.00;;;;;;;;;;5082130;28;20454;-83
2022/06/02 07:16:04;;;;;;;5.77;4.70;;;;;;;;;;5065674;28;20400;-84
2022/06/02 07:18:34;;;;;;;10.53;5.10;;;;;;;;;;5084490;28;20890;-84
2022/06/02 07:21:07;;;;;;;7.53;5.50;;;;;;;;;;5065041;28;20456;-83
2022/06/02 07:23:39;;;;;;;6.30;5.53;;;;;;;;;;5083549;28;20405;-85
2022/06/02 07:26:13;;;;;;;5.50;5.00;;;;;;;;;;5084710;28;20849;-83
2022/06/02 07:28:52;;;;;;;7.47;5.40;;;;;;;;;;5071154;28;20411;-82
2022/06/02 07:31:21;;;;;;;5.57;4.80;;;;;;;;;;5077455;28;20439;-83
2022/06/02 07:33:53;;;;;;;6.60;4.33;;;;;;;;;;5069067;28;20480;-85
2022/06/02 07:36:31;;;;;;;5.20;4.57;;;;;;;;;;5066967;28;20451;-84
2022/06/02 07:38:57;;;;;;;6.80;4.47;;;;;;;;;;5083808;28;20412;-84
2022/06/02 07:41:38;;;;;;;8.73;5.47;;;;;;;;;;5083968;28;20477;-84
2022/06/02 07:44:24;;;;;;;5.73;5.10;;;;;;;;;;5065930;28;20504;-84
2022/06/02 07:47:08;;;;;;;6.50;5.53;;;;;;;;;;5065066;28;20407;-84
2022/06/02 07:49:37;;;;;;;8.53;6.00;;;;;;;;;;5081509;28;20428;-83
2022/06/02 07:52:36;;;;;;;7.30;6.60;;;;;;;;;;5087036;28;20408;-83
2022/06/02 07:55:23;;;;;;;5.97;5.20;;;;;;;;;;5030215;28;20417;-84
2022/06/02 07:57:49;;;;;;;7.17;5.10;;;;;;;;;;5081335;28;20411;-84
2022/06/02 08:00:20;;;;;;;6.37;5.70;;;;;;;;;;5082855;28;20424;-83
2022/06/02 08:03:02;;;;;;;8.00;5.77;;;;;;;;;;5082803;28;20909;-83
2022/06/02 08:05:28;;;;;;;5.63;5.03;;;;;;;;;;5084975;28;20376;-83
2022/06/02 08:07:56;;;;;;;5.43;4.63;;;;;;;;;;5092778;28;20401;-84
2022/06/02 08:10:25;;;;;;;6.37;4.40;;;;;;;;;;5066872;28;20440;-85
2022/06/02 08:12:51;;;;;;;7.20;4.50;;;;;;;;;;5083560;28;20980;-84
2022/06/02 08:15:17;;;;;;;4.73;4.20;;;;;;;;;;5064991;28;20424;-84
2022/06/02 08:17:43;;;;;;;5.13;4.60;;;;;;;;;;5063969;28;20409;-84
2022/06/02 08:20:25;;;;;;;9.50;5.80;;;;;;;;;;5085707;28;20427;-82
2022/06/02 08:23:11;;;;;;;8.50;5.90;;;;;;;;;;5086855;28;20389;-84
2022/06/02 08:25:55;;;;;;;6.80;4.87;;;;;;;;;;5065926;28;20397;-83
2022/06/02 08:28:30;;;;;;;8.83;5.23;;;;;;;;;;5064294;28;20752;-85
2022/06/02 08:31:05;;;;;;;10.90;6.20;;;;;;;;;;5063426;28;20807;-83
2022/06/02 08:33:43;;;;;;;7.90;6.40;;;;;;;;;;5083600;28;20500;-83
2022/06/02 08:36:30;;;;;;;7.60;5.17;;;;;;;;;;5081664;28;20404;-83
2022/06/02 08:39:10;;;;;;;8.27;6.00;;;;;;;;;;5081596;28;20503;-83
2022/06/02 08:42:09;;;;;;;7.17;6.10;;;;;;;;;;5082730;28;20475;-84
2022/06/02 08:44:41;;;;;;;8.57;5.93;;;;;;;;;;5064692;28;20758;-84
2022/06/02 08:47:26;;;;;;;10.33;5.73;;;;;;;;;;5081390;28;20446;-84
2022/06/02 08:50:09;;;;;;;6.50;5.30;;;;;;;;;;5065456;28;20423;-83
2022/06/02 08:52:36;;;;;;;6.47;4.83;;;;;;;;;;5084515;28;20452;-83
2022/06/02 08:55:20;;;;;;;8.73;5.60;;;;;;;;;;5074628;28;20432;-82
2022/06/02 08:57:46;;;;;;;6.97;5.40;;;;;;;;;;5058598;28;20426;-82
2022/06/02 09:00:19;;;;;;;7.77;5.40;;;;;;;;;;5076100;28;20500;-82
2022/06/02 09:03:03;;;;;;;12.90;5.93;;;;;;;;;;5090308;28;20456;-83
2022/06/02 09:05:48;;;;;;;7.97;4.67;;;;;;;;;;5059790;28;20495;-82
2022/06/02 09:08:29;;;;;;;7.07;6.30;;;;;;;;;;5072055;28;20413;-83
2022/06/02 09:10:55;;;;;;;6.80;6.10;;;;;;;;;;5083579;28;20868;-84
2022/06/02 09:13:27;;;;;;;9.23;6.47;;;;;;;;;;5069027;28;20518;-83
2022/06/02 09:16:12;;;;;;;11.23;6.80;;;;;;;;;;5086326;28;20413;-84
2022/06/02 09:18:39;;;;;;;8.17;6.90;;;;;;;;;;5088787;28;20487;-85
2022/06/02 09:23:55;;;;;;;6.53;5.90;;;;;;;;;;5052402;28;20465;-86
2022/06/02 09:26:24;;;;;;;8.40;5.90;;;;;;;;;;5055554;28;20413;-86
2022/06/02 09:28:57;;;;;;;8.30;6.30;;;;;;;;;;5057195;28;20422;-85
2022/06/02 09:31:35;;;;;;;6.77;6.07;;;;;;;;;;5057048;28;20885;-84
2022/06/02 09:34:13;;;;;;;10.03;5.83;;;;;;;;;;5057177;28;20410;-85
2022/06/02 09:36:52;;;;;;;8.17;5.47;;;;;;;;;;5057123;28;20484;-86
2022/06/02 09:39:21;;;;;;;9.93;5.10;;;;;;;;;;5058371;28;20413;-86
2022/06/02 09:42:05;;;;;;;6.33;5.40;;;;;;;;;;5057598;28;20485;-87
2022/06/02 09:44:41;;;;;;;7.07;5.10;;;;;;;;;;5064075;28;20427;-87
2022/06/02 09:47:17;;;;;;;6.53;4.70;;;;;;;;;;5070755;28;20401;-87
2022/06/02 09:49:52;;;;;;;7.03;4.83;;;;;;;;;;5052033;28;20458;-87
2022/06/02 09:52:21;;;;;;;7.77;5.23;;;;;;;;;;5060199;28;20472;-86
2022/06/02 09:54:53;;;;;;;9.40;4.60;;;;;;;;;;5077519;28;20405;-88
2022/06/02 10:00:16;;;;;;;8.37;4.67;;;;;;;;;;5078990;28;20380;-89
2022/06/02 10:02:47;;;;;;;9.47;4.90;;;;;;;;;;5061188;28;20456;-88
2022/06/02 10:05:13;;;;;;;8.60;4.17;;;;;;;;;;5084505;28;20534;-88
2022/06/02 10:07:39;;;;;;;8.93;4.20;;;;;;;;;;5089082;28;20464;-86
2022/06/02 10:10:29;;;;;;;5.10;4.30;;;;;;;;;;5075721;28;20407;-86
2022/06/02 10:12:59;;;;;;;7.43;3.70;;;;;;;;;;5076242;28;20473;-87
2022/06/02 10:15:34;;;;;;;7.53;4.20;;;;;;;;;;5076820;28;20491;-86
2022/06/02 10:18:06;;;;;;;9.63;4.47;;;;;;;;;;5058725;28;20438;-87
2022/06/02 10:20:39;;;;;;;6.50;5.70;;;;;;;;;;5076309;28;20831;-89
2022/06/02 10:23:15;;;;;;;10.00;5.07;;;;;;;;;;5076699;28;20474;-87
2022/06/02 10:25:57;;;;;;;6.50;5.00;;;;;;;;;;5059267;28;20400;-87
2022/06/02 10:28:42;;;;;;;5.73;4.90;;;;;;;;;;5059679;28;20415;-88
2022/06/02 10:31:11;;;;;;;6.50;5.80;;;;;;;;;;5060775;28;20400;-88
2022/06/02 10:33:55;;;;;;;8.53;5.70;;;;;;;;;;5080019;28;20457;-88
2022/06/02 10:36:27;;;;;;;7.10;5.43;;;;;;;;;;5081500;28;20420;-89
2022/06/02 10:38:53;;;;;;;6.80;4.47;;;;;;;;;;5079401;28;20409;-88
2022/06/02 10:41:25;;;;;;;5.53;4.80;;;;;;;;;;5079193;28;20499;-88
2022/06/02 10:44:11;;;;;;;7.03;4.20;;;;;;;;;;5079432;28;20426;-89
2022/06/02 10:46:38;;;;;;;8.90;4.90;;;;;;;;;;5079404;28;20389;-88
2022/06/02 10:49:26;;;;;;;5.40;4.80;;;;;;;;;;5079639;28;20927;-89
2022/06/02 10:52:10;;;;;;;9.93;4.40;;;;;;;;;;5079696;28;20423;-89
2022/06/02 10:54:55;;;;;;;6.60;5.20;;;;;;;;;;5080102;28;20404;-88
2022/06/02 10:57:39;;;;;;;6.10;4.70;;;;;;;;;;5080803;28;20893;-88
2022/06/02 11:00:05;;;;;;;5.07;4.57;;;;;;;;;;5081570;28;20551;-88
2022/06/02 11:02:50;;;;;;;6.07;4.60;;;;;;;;;;5080096;28;20456;-89
2022/06/02 11:05:35;;;;;;;10.97;5.03;;;;;;;;;;5078360;28;20765;-89
2022/06/02 11:08:20;;;;;;;5.83;4.50;;;;;;;;;;5080718;28;20528;-85
2022/06/02 11:11:00;;;;;;;9.30;4.90;;;;;;;;;;5073687;28;20405;-86
2022/06/02 11:13:29;;;;;;;5.70;4.30;;;;;;;;;;5075952;28;20416;-87
2022/06/02 11:16:01;;;;;;;5.33;4.50;;;;;;;;;;5074381;28;20484;-89
2022/06/02 11:18:28;;;;;;;8.23;5.83;;;;;;;;;;5078922;28;20472;-88
2022/06/02 11:21:13;;;;;;;7.10;4.80;;;;;;;;;;5083044;28;20461;-88
2022/06/02 11:23:57;;;;;;;6.50;5.80;;;;;;;;;;5073751;28;20500;-87
2022/06/02 11:26:39;;;;;;;5.80;4.90;;;;;;;;;;5049284;28;20436;-87
2022/06/02 11:29:21;;;;;;;8.10;5.50;;;;;;;;;;5058943;28;20795;-87
2022/06/02 11:31:50;;;;;;;7.87;5.50;;;;;;;;;;5061974;28;20441;-87
2022/06/02 11:34:29;;;;;;;5.57;4.67;;;;;;;;;;5053800;28;20941;-88
2022/06/02 11:37:14;;;;;;;6.83;4.67;;;;;;;;;;5063984;28;20405;-88
2022/06/02 11:39:43;;;;;;;6.60;4.70;;;;;;;;;;5062626;28;20423;-88
2022/06/02 11:42:20;;;;;;;6.13;4.70;;;;;;;;;;5063579;28;20475;-87
2022/06/02 11:44:52;;;;;;;5.43;4.00;;;;;;;;;;5064471;28;20428;-87
2022/06/02 11:47:23;;;;;;;5.50;5.00;;;;;;;;;;5071596;28;20862;-88
2022/06/02 11:50:08;;;;;;;7.27;5.33;;;;;;;;;;5062346;28;20389;-88
2022/06/02 11:52:52;;;;;;;7.30;5.33;;;;;;;;;;5062817;28;20524;-88
2022/06/02 11:55:24;;;;;;;10.10;5.53;;;;;;;;;;5063179;28;20409;-88
2022/06/02 11:57:50;;;;;;;5.50;4.93;;;;;;;;;;5062212;28;20453;-87
2022/06/02 12:00:19;;;;;;;7.00;5.40;;;;;;;;;;5062079;28;20416;-87
2022/06/02 12:02:51;;;;;;;7.00;5.47;;;;;;;;;;5076435;28;20467;-88
2022/06/02 12:05:28;;;;;;;8.47;5.43;;;;;;;;;;5081008;28;20401;-88
2022/06/02 12:08:13;;;;;;;7.40;5.50;;;;;;;;;;5062281;28;20453;-87
2022/06/02 12:10:45;;;;;;;6.80;4.40;;;;;;;;;;5048396;28;20823;-88
2022/06/02 12:13:14;;;;;;;6.33;4.63;;;;;;;;;;5082059;28;20416;-86
2022/06/02 12:16:11;;;;;;;6.13;4.70;;;;;;;;;;5081056;28;20929;-89
2022/06/02 12:18:46;;;;;;;5.70;4.67;;;;;;;;;;5081629;28;20405;-87
2022/06/02 12:21:12;;;;;;;7.20;4.30;;;;;;;;;;5073508;28;20475;-89
2022/06/02 12:23:57;;;;;;;4.60;3.93;;;;;;;;;;5071183;28;20512;-89
2022/06/02 12:26:31;;;;;;;6.03;4.40;;;;;;;;;;5061911;28;20390;-87
2022/06/02 12:29:12;;;;;;;6.23;5.47;;;;;;;;;;5066607;28;20406;-87
2022/06/02 12:31:55;;;;;;;5.57;4.10;;;;;;;;;;5039959;28;20513;-87
2022/06/02 12:34:24;;;;;;;14.10;4.50;;;;;;;;;;5044237;28;20482;-86
2022/06/02 12:36:59;;;;;;;6.37;5.50;;;;;;;;;;5052094;28;20424;-86
2022/06/02 12:39:43;;;;;;;6.57;4.40;;;;;;;;;;5063771;28;20964;-86
2022/06/02 12:42:15;;;;;;;6.37;4.17;;;;;;;;;;5068708;28;20484;-85
2022/06/02 12:45:14;;;;;;;5.43;4.60;;;;;;;;;;5080140;28;20445;-85
2022/06/02 12:47:49;;;;;;;4.70;4.20;;;;;;;;;;5026082;28;20432;-86
2022/06/02 12:50:18;;;;;;;6.67;4.60;;;;;;;;;;5081658;28;20420;-87
2022/06/02 12:53:03;;;;;;;6.50;4.30;;;;;;;;;;5079947;28;20506;-84
2022/06/02 12:55:35;;;;;;;9.43;3.83;;;;;;;;;;5092405;28;20448;-86
2022/06/02 12:58:01;;;;;;;9.73;4.97;;;;;;;;;;5092467;28;20432;-83
2022/06/02 13:00:37;;;;;;;5.53;3.27;;;;;;;;;;5090697;28;20441;-84
2022/06/02 13:03:05;;;;;;;6.30;4.20;;;;;;;;;;5058708;28;20444;-86
2022/06/02 13:05:49;;;;;;;7.80;4.37;;;;;;;;;;5056899;28;20413;-87
2022/06/02 13:08:15;;;;;;;6.83;4.30;;;;;;;;;;5061280;28;20905;-86
2022/06/02 13:10:45;;;;;;;7.67;3.90;;;;;;;;;;5061894;28;20437;-87
2022/06/02 13:13:26;;;;;;;4.70;3.90;;;;;;;;;;5060742;28;20468;-87
2022/06/02 13:16:22;;;;;;;4.17;3.30;;;;;;;;;;5065947;28;20428;-85
2022/06/02 13:18:51;;;;;;;5.23;4.30;;;;;;;;;;5065943;28;20414;-85
2022/06/02 13:21:20;;;;;;;7.60;4.23;;;;;;;;;;5073953;28;20479;-86
2022/06/02 13:24:05;;;;;;;3.63;3.27;;;;;;;;;;5061908;28;20417;-87
2022/06/02 13:26:49;;;;;;;3.80;3.37;;;;;;;;;;5072874;28;20503;-87
2022/06/02 13:29:34;;;;;;;10.90;3.53;;;;;;;;;;5060257;28;20409;-87
2022/06/02 13:32:14;;;;;;;3.97;3.50;;;;;;;;;;5058836;28;20425;-85
2022/06/02 13:34:59;;;;;;;4.43;4.00;;;;;;;;;;5059314;28;20393;-86
2022/06/02 13:37:43;;;;;;;3.93;3.13;;;;;;;;;;5059217;28;20409;-87
2022/06/02 13:40:30;;;;;;;3.63;3.17;;;;;;;;;;5063057;28;20531;-86
2022/06/02 13:43:03;;;;;;;7.67;3.83;;;;;;;;;;5024685;28;20464;-87
2022/06/02 13:45:46;;;;;;;4.70;3.77;;;;;;;;;;5078858;28;20967;-86
2022/06/02 13:48:15;;;;;;;3.40;3.10;;;;;;;;;;5080159;28;20393;-86
2022/06/02 13:51:00;;;;;;;6.23;3.23;;;;;;;;;;5062826;28;20418;-87
2022/06/02 13:57:30;;;;;;;4.23;2.90;;;;;;;;;;5059340;28;20483;-87
2022/06/02 13:59:40;;;;;;;4.70;2.70;;;;;;;;;;5061413;28;20854;-86
2022/06/02 14:02:19;;;;;;;6.53;3.23;;;;;;;;;;5049675;28;20461;-86
2022/06/02 14:04:45;;;;;;;5.30;3.43;;;;;;;;;;5071626;28;20407;-84
2022/06/02 14:07:10;;;;;;;6.17;3.30;;;;;;;;;;5073003;28;20438;-83
2022/06/02 14:09:43;;;;;;;4.37;3.40;;;;;;;;;;5072981;28;20401;-85
2022/06/02 14:12:09;;;;;;;7.20;3.50;;;;;;;;;;5070321;28;20426;-87
2022/06/02 14:14:42;;;;;;;5.17;3.63;;;;;;;;;;5060061;28;20408;-86
2022/06/02 14:17:20;;;;;;;5.70;2.73;;;;;;;;;;5066818;28;20465;-85
2022/06/02 14:19:58;;;;;;;4.93;3.43;;;;;;;;;;5058450;28;20401;-84
2022/06/02 14:22:27;;;;;;;5.93;3.20;;;;;;;;;;5056815;28;20471;-87
2022/06/02 14:24:59;;;;;;;5.77;2.93;;;;;;;;;;5058117;28;20434;-87
2022/06/02 14:27:41;;;;;;;4.27;3.23;;;;;;;;;;5058634;28;20408;-86
2022/06/02 14:30:24;;;;;;;4.53;2.80;;;;;;;;;;5058877;28;20901;-87
2022/06/02 14:32:56;;;;;;;3.77;3.00;;;;;;;;;;5040314;28;20429;-87
2022/06/02 14:35:28;;;;;;;3.27;2.97;;;;;;;;;;5060603;28;20401;-87
2022/06/02 14:37:54;;;;;;;4.60;3.40;;;;;;;;;;5060162;28;20417;-88
2022/06/02 14:40:26;;;;;;;3.53;2.37;;;;;;;;;;5059867;28;20967;-87
2022/06/02 14:43:04;;;;;;;6.17;3.30;;;;;;;;;;5060070;28;20476;-89
2022/06/02 14:45:30;;;;;;;5.70;3.00;;;;;;;;;;5063099;28;20401;-85
2022/06/02 14:48:04;;;;;;;3.10;2.77;;;;;;;;;;5062009;28;20737;-86
2022/06/02 14:50:32;;;;;;;5.97;3.10;;;;;;;;;;5061977;28;20914;-88
2022/06/02 14:53:10;;;;;;;3.10;2.80;;;;;;;;;;5080367;28;20451;-86
2022/06/02 14:55:41;;;;;;;3.10;2.77;;;;;;;;;;5079442;28;20447;-86
2022/06/02 14:58:23;;;;;;;3.67;2.70;;;;;;;;;;5070032;28;20408;-86
2022/06/02 15:00:59;;;;;;;5.60;2.80;;;;;;;;;;5076957;28;20409;-87
2022/06/02 15:03:34;;;;;;;7.47;3.40;;;;;;;;;;5079651;28;20420;-85
2022/06/02 15:06:23;;;;;;;5.13;3.20;;;;;;;;;;5068353;28;20469;-88
2022/06/02 15:09:15;;;;;;;3.60;3.03;;;;;;;;;;5057666;28;20787;-87
2022/06/02 15:11:41;;;;;;;5.10;2.93;;;;;;;;;;5069953;28;20468;-85
2022/06/02 15:14:13;;;;;;;3.23;2.53;;;;;;;;;;5073625;28;20416;-87
2022/06/02 15:17:03;;;;;;;3.50;2.60;;;;;;;;;;5076955;28;20416;-85
2022/06/02 15:19:47;;;;;;;3.83;2.43;;;;;;;;;;5019068;28;20425;-88
2022/06/02 15:22:25;;;;;;;3.47;2.37;;;;;;;;;;5069024;28;20539;-87
2022/06/02 15:25:18;;;;;;;7.07;3.23;;;;;;;;;;5118449;22;20484;-83
2022/06/02 15:27:55;;;;;;;3.83;2.53;;;;;;;;;;5033724;28;20417;-84
2022/06/02 15:30:36;;;;;;;4.10;1.97;;;;;;;;;;5063961;28;20397;-83
2022/06/02 15:33:21;;;;;;;3.50;2.40;;;;;;;;;;5077366;28;20495;-84
2022/06/02 15:36:05;;;;;;;3.83;2.40;;;;;;;;;;5084857;28;20447;-85
2022/06/02 15:38:40;;;;;;;3.60;2.83;;;;;;;;;;5083892;28;20416;-86
2022/06/02 15:41:27;;;;;;;3.43;3.00;;;;;;;;;;5084064;28;20426;-86
2022/06/02 15:43:52;;;;;;;4.50;2.53;;;;;;;;;;5049891;28;21820;-85
2022/06/02 15:46:34;;;;;;;3.47;2.60;;;;;;;;;;5088924;28;20416;-84
2022/06/02 15:49:14;;;;;;;4.27;2.93;;;;;;;;;;5095312;28;20425;-82